SLCO/CIJ METAR and TAF weather

Enter ICAO airport designator
Station Type Date Time Source
SLCO METAR 2022/06/30 13:00 UTC NOAA

SLCO 301300Z 00000KT 5000 BR FU NSC 22/20 Q1015


Station Type Date Time Source
SLCO Decoded METAR 2022/06/30 13:00 UTC NOAA

Cobija, Bolivia (SLCO) 11-02S 068-47W 260M
Jun 30, 2022 - 09:00 AM EDT / 2022.06.30 1300 UTC
Wind: Calm:0
Visibility: 3 mile(s):0
Weather: mist; smoke
Temperature: 71 F (22 C)
Dew Point: 68 F (20 C)
Relative Humidity: 88%
Pressure (altimeter): 29.97 in. Hg (1015 hPa)
ob: SLCO 301300Z 00000KT 5000 BR FU NSC 22/20 Q1015
cycle: 13

Station Type Date Time Source
SLCO TAF 2022/06/30 12:51 UTC NOAA

TAF TAF SLCO 301000Z 3012/0112 00000KT 9999 NSC TX33/3019Z TN18/0111Z
BECMG 3014/3017 35006KT FEW027
BECMG 3022/0101 00000KT

Example: see airport list